sensor_id;sensor_type;location;lat;lon;timestamp;temperature;humidity
21031;DHT22;61072;47.808;7.636;2023-03-14T00:00:58;12.30;99.90
21031;DHT22;61072;47.808;7.636;2023-03-14T00:03:25;12.20;99.90
21031;DHT22;61072;47.808;7.636;2023-03-14T00:05:52;12.30;99.90
21031;DHT22;61072;47.808;7.636;2023-03-14T00:08:18;12.30;99.90
21031;DHT22;61072;47.808;7.636;2023-03-14T00:10:47;12.30;99.90
21031;DHT22;61072;47.808;7.636;2023-03-14T00:13:14;12.30;99.90
21031;DHT22;61072;47.808;7.636;2023-03-14T00:15:41;12.30;99.90
21031;DHT22;61072;47.808;7.636;2023-03-14T00:18:07;12.40;99.90
21031;DHT22;61072;47.808;7.636;2023-03-14T00:20:34;12.40;99.90
21031;DHT22;61072;47.808;7.636;2023-03-14T00:23:01;12.40;99.90
21031;DHT22;61072;47.808;7.636;2023-03-14T00:25:28;12.40;99.90
21031;DHT22;61072;47.808;7.636;2023-03-14T00:27:55;12.40;99.90
21031;DHT22;61072;47.808;7.636;2023-03-14T00:30:22;12.50;99.90
21031;DHT22;61072;47.808;7.636;2023-03-14T00:32:49;12.40;99.90
21031;DHT22;61072;47.808;7.636;2023-03-14T00:35:16;12.40;99.90
21031;DHT22;61072;47.808;7.636;2023-03-14T00:37:42;12.40;99.90
21031;DHT22;61072;47.808;7.636;2023-03-14T00:40:10;12.40;99.90
21031;DHT22;61072;47.808;7.636;2023-03-14T00:42:36;12.40;99.90
21031;DHT22;61072;47.808;7.636;2023-03-14T00:45:03;12.50;99.90
21031;DHT22;61072;47.808;7.636;2023-03-14T00:47:30;12.40;99.90
21031;DHT22;61072;47.808;7.636;2023-03-14T00:49:57;12.40;99.90
21031;DHT22;61072;47.808;7.636;2023-03-14T00:52:23;12.40;99.90
21031;DHT22;61072;47.808;7.636;2023-03-14T00:54:50;12.40;99.90
21031;DHT22;61072;47.808;7.636;2023-03-14T00:57:17;12.40;99.90
21031;DHT22;61072;47.808;7.636;2023-03-14T00:59:43;12.40;99.90
21031;DHT22;61072;47.808;7.636;2023-03-14T01:02:10;12.40;99.90
21031;DHT22;61072;47.808;7.636;2023-03-14T01:04:37;12.50;99.90
21031;DHT22;61072;47.808;7.636;2023-03-14T01:07:05;12.40;99.90
21031;DHT22;61072;47.808;7.636;2023-03-14T01:09:32;12.40;99.90
21031;DHT22;61072;47.808;7.636;2023-03-14T01:11:59;12.40;99.90
21031;DHT22;61072;47.808;7.636;2023-03-14T01:14:25;12.50;99.90
21031;DHT22;61072;47.808;7.636;2023-03-14T01:16:52;12.50;99.90
21031;DHT22;61072;47.808;7.636;2023-03-14T01:19:19;12.40;99.90
21031;DHT22;61072;47.808;7.636;2023-03-14T01:21:45;12.40;99.90
21031;DHT22;61072;47.808;7.636;2023-03-14T01:24:12;12.40;99.90
21031;DHT22;61072;47.808;7.636;2023-03-14T01:26:38;12.30;99.90
21031;DHT22;61072;47.808;7.636;2023-03-14T01:29:05;12.30;99.90
21031;DHT22;61072;47.808;7.636;2023-03-14T01:31:32;12.30;99.90
21031;DHT22;61072;47.808;7.636;2023-03-14T01:33:59;12.30;99.90
21031;DHT22;61072;47.808;7.636;2023-03-14T01:36:25;12.30;99.90
21031;DHT22;61072;47.808;7.636;2023-03-14T01:38:52;12.30;99.90
21031;DHT22;61072;47.808;7.636;2023-03-14T01:41:22;12.30;99.90
21031;DHT22;61072;47.808;7.636;2023-03-14T01:43:49;12.40;99.90
21031;DHT22;61072;47.808;7.636;2023-03-14T01:46:41;12.40;99.90
21031;DHT22;61072;47.808;7.636;2023-03-14T01:51:59;12.30;99.90
21031;DHT22;61072;47.808;7.636;2023-03-14T01:55:13;12.40;99.90
21031;DHT22;61072;47.808;7.636;2023-03-14T01:57:32;12.40;99.90
21031;DHT22;61072;47.808;7.636;2023-03-14T02:00:05;12.40;99.90
21031;DHT22;61072;47.808;7.636;2023-03-14T02:02:43;12.40;99.90
21031;DHT22;61072;47.808;7.636;2023-03-14T02:05:12;12.40;99.90
21031;DHT22;61072;47.808;7.636;2023-03-14T02:07:53;12.40;99.90
21031;DHT22;61072;47.808;7.636;2023-03-14T02:10:23;12.40;99.90
21031;DHT22;61072;47.808;7.636;2023-03-14T02:12:52;12.30;99.90
21031;DHT22;61072;47.808;7.636;2023-03-14T02:15:19;12.30;99.90
21031;DHT22;61072;47.808;7.636;2023-03-14T02:17:46;12.30;99.90
21031;DHT22;61072;47.808;7.636;2023-03-14T02:22:55;12.30;99.90
21031;DHT22;61072;47.808;7.636;2023-03-14T02:27:49;12.30;99.90
21031;DHT22;61072;47.808;7.636;2023-03-14T02:30:19;12.20;99.90
21031;DHT22;61072;47.808;7.636;2023-03-14T02:32:48;12.10;99.90
21031;DHT22;61072;47.808;7.636;2023-03-14T02:35:21;12.10;99.90
21031;DHT22;61072;47.808;7.636;2023-03-14T02:38:00;12.10;99.90
21031;DHT22;61072;47.808;7.636;2023-03-14T02:40:29;12.10;99.90
21031;DHT22;61072;47.808;7.636;2023-03-14T02:42:56;12.10;99.90
21031;DHT22;61072;47.808;7.636;2023-03-14T02:47:53;12.10;99.90
21031;DHT22;61072;47.808;7.636;2023-03-14T02:50:23;12.00;99.90
21031;DHT22;61072;47.808;7.636;2023-03-14T02:52:51;12.00;99.90
21031;DHT22;61072;47.808;7.636;2023-03-14T02:55:22;12.00;99.90
21031;DHT22;61072;47.808;7.636;2023-03-14T02:57:49;12.00;99.90
21031;DHT22;61072;47.808;7.636;2023-03-14T03:00:16;12.10;99.90
21031;DHT22;61072;47.808;7.636;2023-03-14T03:02:43;12.10;99.90
21031;DHT22;61072;47.808;7.636;2023-03-14T03:05:10;12.10;99.90
21031;DHT22;61072;47.808;7.636;2023-03-14T03:07:36;12.10;99.90
21031;DHT22;61072;47.808;7.636;2023-03-14T03:10:04;12.10;99.90
21031;DHT22;61072;47.808;7.636;2023-03-14T03:12:31;12.10;99.90
21031;DHT22;61072;47.808;7.636;2023-03-14T03:14:58;12.00;99.90
21031;DHT22;61072;47.808;7.636;2023-03-14T03:17:24;12.10;99.90
21031;DHT22;61072;47.808;7.636;2023-03-14T03:19:51;12.00;99.90
21031;DHT22;61072;47.808;7.636;2023-03-14T03:22:18;12.00;99.90
21031;DHT22;61072;47.808;7.636;2023-03-14T03:24:44;12.00;99.90
21031;DHT22;61072;47.808;7.636;2023-03-14T03:27:11;12.00;99.90
21031;DHT22;61072;47.808;7.636;2023-03-14T03:29:38;12.00;99.90
21031;DHT22;61072;47.808;7.636;2023-03-14T03:32:04;11.90;99.90
21031;DHT22;61072;47.808;7.636;2023-03-14T03:34:31;11.90;99.90
21031;DHT22;61072;47.808;7.636;2023-03-14T03:36:58;11.90;99.90
21031;DHT22;61072;47.808;7.636;2023-03-14T03:39:25;11.90;99.90
21031;DHT22;61072;47.808;7.636;2023-03-14T03:41:51;11.90;99.90
21031;DHT22;61072;47.808;7.636;2023-03-14T03:44:18;11.80;99.90
21031;DHT22;61072;47.808;7.636;2023-03-14T03:46:44;11.80;99.90
21031;DHT22;61072;47.808;7.636;2023-03-14T03:49:11;11.80;99.90
21031;DHT22;61072;47.808;7.636;2023-03-14T03:51:39;11.80;99.90
21031;DHT22;61072;47.808;7.636;2023-03-14T03:54:06;11.80;99.90
21031;DHT22;61072;47.808;7.636;2023-03-14T03:56:33;11.80;99.90
21031;DHT22;61072;47.808;7.636;2023-03-14T03:58:59;11.80;99.90
21031;DHT22;61072;47.808;7.636;2023-03-14T04:01:26;11.80;99.90
21031;DHT22;61072;47.808;7.636;2023-03-14T04:03:53;11.80;99.90
21031;DHT22;61072;47.808;7.636;2023-03-14T04:06:20;11.80;99.90
21031;DHT22;61072;47.808;7.636;2023-03-14T04:08:47;11.80;99.90
21031;DHT22;61072;47.808;7.636;2023-03-14T04:11:13;11.70;99.90
21031;DHT22;61072;47.808;7.636;2023-03-14T04:13:42;11.70;99.90
21031;DHT22;61072;47.808;7.636;2023-03-14T04:16:21;11.70;99.90
21031;DHT22;61072;47.808;7.636;2023-03-14T04:18:48;11.60;99.90
21031;DHT22;61072;47.808;7.636;2023-03-14T04:21:15;11.50;99.90
21031;DHT22;61072;47.808;7.636;2023-03-14T04:23:42;11.50;99.90
21031;DHT22;61072;47.808;7.636;2023-03-14T04:26:08;11.50;99.90
21031;DHT22;61072;47.808;7.636;2023-03-14T04:28:35;11.50;99.90
21031;DHT22;61072;47.808;7.636;2023-03-14T04:31:15;11.50;99.90
21031;DHT22;61072;47.808;7.636;2023-03-14T04:33:42;11.50;99.90
21031;DHT22;61072;47.808;7.636;2023-03-14T04:36:12;11.40;99.90
21031;DHT22;61072;47.808;7.636;2023-03-14T04:38:39;11.40;99.90
21031;DHT22;61072;47.808;7.636;2023-03-14T04:41:06;11.50;99.90
21031;DHT22;61072;47.808;7.636;2023-03-14T04:43:33;11.50;99.90
21031;DHT22;61072;47.808;7.636;2023-03-14T04:46:00;11.40;99.90
21031;DHT22;61072;47.808;7.636;2023-03-14T04:48:27;11.40;99.90
21031;DHT22;61072;47.808;7.636;2023-03-14T04:50:53;11.40;99.90
21031;DHT22;61072;47.808;7.636;2023-03-14T04:53:20;11.40;99.90
21031;DHT22;61072;47.808;7.636;2023-03-14T04:55:51;11.30;99.90
21031;DHT22;61072;47.808;7.636;2023-03-14T04:58:19;11.30;99.90
21031;DHT22;61072;47.808;7.636;2023-03-14T05:00:46;11.20;99.90
21031;DHT22;61072;47.808;7.636;2023-03-14T05:03:15;11.20;99.90
21031;DHT22;61072;47.808;7.636;2023-03-14T05:05:42;11.20;99.90
21031;DHT22;61072;47.808;7.636;2023-03-14T05:08:09;11.10;99.90
21031;DHT22;61072;47.808;7.636;2023-03-14T05:10:36;11.10;99.90
21031;DHT22;61072;47.808;7.636;2023-03-14T05:13:03;11.10;99.90
21031;DHT22;61072;47.808;7.636;2023-03-14T05:15:30;11.10;99.90
21031;DHT22;61072;47.808;7.636;2023-03-14T05:17:57;11.00;99.90
21031;DHT22;61072;47.808;7.636;2023-03-14T05:20:23;11.00;99.90
21031;DHT22;61072;47.808;7.636;2023-03-14T05:22:50;11.00;99.90
21031;DHT22;61072;47.808;7.636;2023-03-14T05:25:17;10.90;99.90
21031;DHT22;61072;47.808;7.636;2023-03-14T05:27:43;10.90;99.90
21031;DHT22;61072;47.808;7.636;2023-03-14T05:30:10;10.90;99.90
21031;DHT22;61072;47.808;7.636;2023-03-14T05:32:37;10.80;99.90
21031;DHT22;61072;47.808;7.636;2023-03-14T05:35:04;10.80;99.90
21031;DHT22;61072;47.808;7.636;2023-03-14T05:37:31;10.80;99.90
21031;DHT22;61072;47.808;7.636;2023-03-14T05:39:57;10.90;99.90
21031;DHT22;61072;47.808;7.636;2023-03-14T05:42:24;10.90;99.90
21031;DHT22;61072;47.808;7.636;2023-03-14T05:44:51;10.90;99.90
21031;DHT22;61072;47.808;7.636;2023-03-14T05:47:17;10.90;99.90
21031;DHT22;61072;47.808;7.636;2023-03-14T05:49:44;10.90;99.90
21031;DHT22;61072;47.808;7.636;2023-03-14T05:52:11;11.00;99.90
21031;DHT22;61072;47.808;7.636;2023-03-14T05:54:38;11.00;99.90
21031;DHT22;61072;47.808;7.636;2023-03-14T05:57:05;11.00;99.90
21031;DHT22;61072;47.808;7.636;2023-03-14T05:59:32;11.10;99.90
21031;DHT22;61072;47.808;7.636;2023-03-14T06:01:58;11.10;99.90
21031;DHT22;61072;47.808;7.636;2023-03-14T06:04:25;11.10;99.90
21031;DHT22;61072;47.808;7.636;2023-03-14T06:06:52;11.20;99.90
21031;DHT22;61072;47.808;7.636;2023-03-14T06:09:19;11.20;99.90
21031;DHT22;61072;47.808;7.636;2023-03-14T06:11:48;11.20;99.90
21031;DHT22;61072;47.808;7.636;2023-03-14T06:14:15;11.20;99.90
21031;DHT22;61072;47.808;7.636;2023-03-14T06:16:42;11.30;99.90
21031;DHT22;61072;47.808;7.636;2023-03-14T06:19:08;11.30;99.90
21031;DHT22;61072;47.808;7.636;2023-03-14T06:21:35;11.40;99.90
21031;DHT22;61072;47.808;7.636;2023-03-14T06:24:02;11.40;99.90
21031;DHT22;61072;47.808;7.636;2023-03-14T06:26:30;11.40;99.90
21031;DHT22;61072;47.808;7.636;2023-03-14T06:28:56;11.50;99.90
21031;DHT22;61072;47.808;7.636;2023-03-14T06:31:23;11.50;99.90
21031;DHT22;61072;47.808;7.636;2023-03-14T06:33:50;11.50;99.90
21031;DHT22;61072;47.808;7.636;2023-03-14T06:36:16;11.50;99.90
21031;DHT22;61072;47.808;7.636;2023-03-14T06:38:43;11.60;99.90
21031;DHT22;61072;47.808;7.636;2023-03-14T06:41:10;11.60;99.90
21031;DHT22;61072;47.808;7.636;2023-03-14T06:43:36;11.60;99.90
21031;DHT22;61072;47.808;7.636;2023-03-14T06:46:03;11.70;99.90
21031;DHT22;61072;47.808;7.636;2023-03-14T06:48:30;11.70;99.90
21031;DHT22;61072;47.808;7.636;2023-03-14T06:50:57;11.80;99.90
21031;DHT22;61072;47.808;7.636;2023-03-14T06:53:23;11.80;99.90
21031;DHT22;61072;47.808;7.636;2023-03-14T06:55:50;11.90;99.90
21031;DHT22;61072;47.808;7.636;2023-03-14T06:58:17;12.00;99.90
21031;DHT22;61072;47.808;7.636;2023-03-14T07:00:44;12.00;99.90
21031;DHT22;61072;47.808;7.636;2023-03-14T07:03:11;12.10;99.90
21031;DHT22;61072;47.808;7.636;2023-03-14T07:05:39;12.10;99.90
21031;DHT22;61072;47.808;7.636;2023-03-14T07:08:08;12.10;99.90
21031;DHT22;61072;47.808;7.636;2023-03-14T07:10:34;12.10;99.90
21031;DHT22;61072;47.808;7.636;2023-03-14T07:13:01;12.10;99.90
21031;DHT22;61072;47.808;7.636;2023-03-14T07:15:28;12.10;99.90
21031;DHT22;61072;47.808;7.636;2023-03-14T07:17:55;12.10;99.90
21031;DHT22;61072;47.808;7.636;2023-03-14T07:20:22;12.10;99.90
21031;DHT22;61072;47.808;7.636;2023-03-14T07:22:49;12.20;99.90
21031;DHT22;61072;47.808;7.636;2023-03-14T07:25:17;12.30;99.90
21031;DHT22;61072;47.808;7.636;2023-03-14T07:27:45;12.30;99.90
21031;DHT22;61072;47.808;7.636;2023-03-14T07:30:12;12.30;99.90
21031;DHT22;61072;47.808;7.636;2023-03-14T07:32:39;12.40;99.90
21031;DHT22;61072;47.808;7.636;2023-03-14T07:35:07;12.40;99.90
21031;DHT22;61072;47.808;7.636;2023-03-14T07:37:34;12.40;99.90
21031;DHT22;61072;47.808;7.636;2023-03-14T07:40:00;12.40;99.90
21031;DHT22;61072;47.808;7.636;2023-03-14T07:42:27;12.40;99.90
21031;DHT22;61072;47.808;7.636;2023-03-14T07:44:54;12.40;99.90
21031;DHT22;61072;47.808;7.636;2023-03-14T07:47:20;12.50;99.90
21031;DHT22;61072;47.808;7.636;2023-03-14T07:49:47;12.40;99.90
21031;DHT22;61072;47.808;7.636;2023-03-14T07:52:14;12.40;99.90
21031;DHT22;61072;47.808;7.636;2023-03-14T07:54:40;12.40;99.90
21031;DHT22;61072;47.808;7.636;2023-03-14T07:57:07;12.40;99.90
21031;DHT22;61072;47.808;7.636;2023-03-14T07:59:33;12.40;99.90
21031;DHT22;61072;47.808;7.636;2023-03-14T08:02:00;12.40;99.90
21031;DHT22;61072;47.808;7.636;2023-03-14T08:04:27;12.40;99.90
21031;DHT22;61072;47.808;7.636;2023-03-14T08:06:53;12.30;99.90
21031;DHT22;61072;47.808;7.636;2023-03-14T08:09:20;12.30;99.90
21031;DHT22;61072;47.808;7.636;2023-03-14T08:11:47;12.40;99.90
21031;DHT22;61072;47.808;7.636;2023-03-14T08:14:14;12.30;99.90
21031;DHT22;61072;47.808;7.636;2023-03-14T08:16:40;12.40;99.90
21031;DHT22;61072;47.808;7.636;2023-03-14T08:19:07;12.40;99.90
21031;DHT22;61072;47.808;7.636;2023-03-14T08:21:35;12.40;99.90
21031;DHT22;61072;47.808;7.636;2023-03-14T08:24:01;12.50;99.90
21031;DHT22;61072;47.808;7.636;2023-03-14T08:26:28;12.50;99.90
21031;DHT22;61072;47.808;7.636;2023-03-14T08:28:55;12.60;99.90
21031;DHT22;61072;47.808;7.636;2023-03-14T08:31:21;12.60;99.90
21031;DHT22;61072;47.808;7.636;2023-03-14T08:33:48;12.60;99.90
21031;DHT22;61072;47.808;7.636;2023-03-14T08:36:15;12.70;99.90
21031;DHT22;61072;47.808;7.636;2023-03-14T08:38:42;12.70;99.90
21031;DHT22;61072;47.808;7.636;2023-03-14T08:41:09;12.70;99.90
21031;DHT22;61072;47.808;7.636;2023-03-14T08:43:36;12.80;99.90
21031;DHT22;61072;47.808;7.636;2023-03-14T08:46:03;12.80;99.90
21031;DHT22;61072;47.808;7.636;2023-03-14T08:48:30;12.80;99.90
21031;DHT22;61072;47.808;7.636;2023-03-14T08:51:07;12.70;99.90
21031;DHT22;61072;47.808;7.636;2023-03-14T08:53:34;12.70;99.90
21031;DHT22;61072;47.808;7.636;2023-03-14T08:56:01;12.70;99.90
21031;DHT22;61072;47.808;7.636;2023-03-14T08:58:28;12.70;99.90
21031;DHT22;61072;47.808;7.636;2023-03-14T09:00:55;12.70;99.90
21031;DHT22;61072;47.808;7.636;2023-03-14T09:03:23;12.70;99.90
21031;DHT22;61072;47.808;7.636;2023-03-14T09:05:51;12.70;99.90
21031;DHT22;61072;47.808;7.636;2023-03-14T09:08:18;12.80;99.90
21031;DHT22;61072;47.808;7.636;2023-03-14T09:10:45;12.80;99.90
21031;DHT22;61072;47.808;7.636;2023-03-14T09:13:11;12.80;99.90
21031;DHT22;61072;47.808;7.636;2023-03-14T09:15:38;12.70;99.90
21031;DHT22;61072;47.808;7.636;2023-03-14T09:18:05;12.70;99.90
21031;DHT22;61072;47.808;7.636;2023-03-14T09:20:32;12.70;99.90
21031;DHT22;61072;47.808;7.636;2023-03-14T09:22:58;12.60;99.90
21031;DHT22;61072;47.808;7.636;2023-03-14T09:25:25;12.60;99.90
21031;DHT22;61072;47.808;7.636;2023-03-14T09:27:51;12.50;99.90
21031;DHT22;61072;47.808;7.636;2023-03-14T09:30:18;12.40;99.90
21031;DHT22;61072;47.808;7.636;2023-03-14T09:32:45;12.40;99.90
21031;DHT22;61072;47.808;7.636;2023-03-14T09:35:12;12.40;99.90
21031;DHT22;61072;47.808;7.636;2023-03-14T09:37:38;12.30;99.90
21031;DHT22;61072;47.808;7.636;2023-03-14T09:40:06;12.30;99.90
21031;DHT22;61072;47.808;7.636;2023-03-14T09:42:37;12.20;99.90
21031;DHT22;61072;47.808;7.636;2023-03-14T09:45:17;12.20;99.90
21031;DHT22;61072;47.808;7.636;2023-03-14T09:47:48;12.10;99.90
21031;DHT22;61072;47.808;7.636;2023-03-14T09:50:26;12.00;99.90
21031;DHT22;61072;47.808;7.636;2023-03-14T09:52:56;12.00;99.90
21031;DHT22;61072;47.808;7.636;2023-03-14T09:55:25;11.90;99.90
21031;DHT22;61072;47.808;7.636;2023-03-14T09:57:58;11.90;99.90
21031;DHT22;61072;47.808;7.636;2023-03-14T10:00:28;11.90;99.90
21031;DHT22;61072;47.808;7.636;2023-03-14T10:03:00;12.00;99.90
21031;DHT22;61072;47.808;7.636;2023-03-14T10:05:31;11.90;99.90
21031;DHT22;61072;47.808;7.636;2023-03-14T10:07:57;11.90;99.90
21031;DHT22;61072;47.808;7.636;2023-03-14T10:10:25;11.80;99.90
21031;DHT22;61072;47.808;7.636;2023-03-14T10:15:54;11.80;99.90
21031;DHT22;61072;47.808;7.636;2023-03-14T10:18:22;11.90;99.90
21031;DHT22;61072;47.808;7.636;2023-03-14T10:21:21;11.90;99.90
21031;DHT22;61072;47.808;7.636;2023-03-14T10:23:52;11.80;99.90
21031;DHT22;61072;47.808;7.636;2023-03-14T10:26:27;11.80;99.90
21031;DHT22;61072;47.808;7.636;2023-03-14T10:29:09;11.70;99.90
21031;DHT22;61072;47.808;7.636;2023-03-14T10:31:47;11.60;99.90
21031;DHT22;61072;47.808;7.636;2023-03-14T10:34:21;11.70;99.90
21031;DHT22;61072;47.808;7.636;2023-03-14T10:36:53;11.70;99.90
21031;DHT22;61072;47.808;7.636;2023-03-14T10:39:27;11.70;99.90
21031;DHT22;61072;47.808;7.636;2023-03-14T10:42:03;11.70;99.90
21031;DHT22;61072;47.808;7.636;2023-03-14T10:44:30;11.70;99.90
21031;DHT22;61072;47.808;7.636;2023-03-14T10:47:02;11.70;99.90
21031;DHT22;61072;47.808;7.636;2023-03-14T10:49:33;11.70;99.90
21031;DHT22;61072;47.808;7.636;2023-03-14T10:52:18;11.60;99.90
21031;DHT22;61072;47.808;7.636;2023-03-14T10:55:00;11.60;99.90
21031;DHT22;61072;47.808;7.636;2023-03-14T10:57:27;11.60;99.90
21031;DHT22;61072;47.808;7.636;2023-03-14T10:59:56;11.50;99.90
21031;DHT22;61072;47.808;7.636;2023-03-14T11:02:34;11.60;99.90
21031;DHT22;61072;47.808;7.636;2023-03-14T11:08:23;11.50;99.90
21031;DHT22;61072;47.808;7.636;2023-03-14T11:11:07;11.50;99.90
21031;DHT22;61072;47.808;7.636;2023-03-14T11:17:00;11.50;99.90
21031;DHT22;61072;47.808;7.636;2023-03-14T11:19:50;11.50;99.90
21031;DHT22;61072;47.808;7.636;2023-03-14T11:22:35;11.50;99.90
21031;DHT22;61072;47.808;7.636;2023-03-14T11:25:30;11.50;99.90
21031;DHT22;61072;47.808;7.636;2023-03-14T11:28:09;11.50;99.90
21031;DHT22;61072;47.808;7.636;2023-03-14T11:31:00;11.60;99.90
21031;DHT22;61072;47.808;7.636;2023-03-14T11:36:21;11.50;99.90
21031;DHT22;61072;47.808;7.636;2023-03-14T11:38:50;11.40;99.90
21031;DHT22;61072;47.808;7.636;2023-03-14T11:41:38;11.40;99.90
21031;DHT22;61072;47.808;7.636;2023-03-14T11:44:25;11.30;99.90
21031;DHT22;61072;47.808;7.636;2023-03-14T11:49:48;11.40;99.90
21031;DHT22;61072;47.808;7.636;2023-03-14T12:00:40;9.60;99.90
21031;DHT22;61072;47.808;7.636;2023-03-14T12:09:04;9.10;99.90
21031;DHT22;61072;47.808;7.636;2023-03-14T12:14:28;9.20;99.90
21031;DHT22;61072;47.808;7.636;2023-03-14T12:16:58;9.30;99.90
21031;DHT22;61072;47.808;7.636;2023-03-14T12:19:30;9.40;99.90
21031;DHT22;61072;47.808;7.636;2023-03-14T12:24:54;9.50;99.90
21031;DHT22;61072;47.808;7.636;2023-03-14T12:30:17;9.60;99.90
21031;DHT22;61072;47.808;7.636;2023-03-14T12:35:43;9.50;99.90
21031;DHT22;61072;47.808;7.636;2023-03-14T12:39:00;9.50;99.90
21031;DHT22;61072;47.808;7.636;2023-03-14T12:41:22;9.50;99.90
21031;DHT22;61072;47.808;7.636;2023-03-14T12:43:49;9.50;99.90
21031;DHT22;61072;47.808;7.636;2023-03-14T12:48:45;9.70;99.90
21031;DHT22;61072;47.808;7.636;2023-03-14T12:51:20;9.80;99.90
21031;DHT22;61072;47.808;7.636;2023-03-14T12:57:04;9.90;99.90
21031;DHT22;61072;47.808;7.636;2023-03-14T12:59:52;9.90;99.90
21031;DHT22;61072;47.808;7.636;2023-03-14T13:02:26;9.80;99.90
21031;DHT22;61072;47.808;7.636;2023-03-14T13:15:40;9.50;99.90
21031;DHT22;61072;47.808;7.636;2023-03-14T13:18:23;9.40;99.90
21031;DHT22;61072;47.808;7.636;2023-03-14T13:21:18;9.40;99.90
21031;DHT22;61072;47.808;7.636;2023-03-14T13:24:07;9.40;99.90
21031;DHT22;61072;47.808;7.636;2023-03-14T13:26:45;9.50;99.90
21031;DHT22;61072;47.808;7.636;2023-03-14T13:29:22;9.50;99.90
21031;DHT22;61072;47.808;7.636;2023-03-14T13:31:52;9.60;99.90
21031;DHT22;61072;47.808;7.636;2023-03-14T13:34:19;9.50;99.90
21031;DHT22;61072;47.808;7.636;2023-03-14T13:36:51;9.50;99.90
21031;DHT22;61072;47.808;7.636;2023-03-14T13:39:20;9.60;99.90
21031;DHT22;61072;47.808;7.636;2023-03-14T13:41:57;9.60;99.90
21031;DHT22;61072;47.808;7.636;2023-03-14T13:44:29;9.70;99.90
21031;DHT22;61072;47.808;7.636;2023-03-14T13:47:05;9.70;99.90
21031;DHT22;61072;47.808;7.636;2023-03-14T13:49:33;9.70;99.90
21031;DHT22;61072;47.808;7.636;2023-03-14T13:52:03;9.80;99.90
21031;DHT22;61072;47.808;7.636;2023-03-14T13:54:31;9.90;99.90
21031;DHT22;61072;47.808;7.636;2023-03-14T13:57:05;10.00;99.90
21031;DHT22;61072;47.808;7.636;2023-03-14T13:59:34;10.10;99.90
21031;DHT22;61072;47.808;7.636;2023-03-14T14:02:12;10.10;99.90
21031;DHT22;61072;47.808;7.636;2023-03-14T14:04:44;10.20;99.90
21031;DHT22;61072;47.808;7.636;2023-03-14T14:07:15;10.20;99.90
21031;DHT22;61072;47.808;7.636;2023-03-14T14:09:50;10.20;99.90
21031;DHT22;61072;47.808;7.636;2023-03-14T14:12:25;10.20;99.90
21031;DHT22;61072;47.808;7.636;2023-03-14T14:14:56;10.30;99.90
21031;DHT22;61072;47.808;7.636;2023-03-14T14:17:31;10.40;99.90
21031;DHT22;61072;47.808;7.636;2023-03-14T14:20:00;10.40;99.90
21031;DHT22;61072;47.808;7.636;2023-03-14T14:22:29;10.40;99.90
21031;DHT22;61072;47.808;7.636;2023-03-14T14:24:56;10.50;99.90
21031;DHT22;61072;47.808;7.636;2023-03-14T14:27:28;10.60;99.90
21031;DHT22;61072;47.808;7.636;2023-03-14T14:30:01;10.60;99.90
21031;DHT22;61072;47.808;7.636;2023-03-14T14:32:35;10.70;99.90
21031;DHT22;61072;47.808;7.636;2023-03-14T14:35:02;10.80;99.90
21031;DHT22;61072;47.808;7.636;2023-03-14T14:37:41;10.80;99.90
21031;DHT22;61072;47.808;7.636;2023-03-14T14:40:19;10.90;99.90
21031;DHT22;61072;47.808;7.636;2023-03-14T14:42:47;10.80;99.90
21031;DHT22;61072;47.808;7.636;2023-03-14T14:45:17;10.90;99.90
21031;DHT22;61072;47.808;7.636;2023-03-14T14:53:03;10.80;99.90
21031;DHT22;61072;47.808;7.636;2023-03-14T14:55:41;10.80;99.90
21031;DHT22;61072;47.808;7.636;2023-03-14T14:58:22;10.70;99.90
21031;DHT22;61072;47.808;7.636;2023-03-14T15:00:54;10.70;99.90
21031;DHT22;61072;47.808;7.636;2023-03-14T15:03:21;10.70;99.90
21031;DHT22;61072;47.808;7.636;2023-03-14T15:05:48;10.70;99.90
21031;DHT22;61072;47.808;7.636;2023-03-14T15:08:14;10.70;99.90
21031;DHT22;61072;47.808;7.636;2023-03-14T15:10:41;10.60;99.90
21031;DHT22;61072;47.808;7.636;2023-03-14T15:13:08;10.50;99.90
21031;DHT22;61072;47.808;7.636;2023-03-14T15:15:35;10.50;99.90
21031;DHT22;61072;47.808;7.636;2023-03-14T15:18:02;10.50;99.90
21031;DHT22;61072;47.808;7.636;2023-03-14T15:20:28;10.40;99.90
21031;DHT22;61072;47.808;7.636;2023-03-14T15:22:56;10.40;99.90
21031;DHT22;61072;47.808;7.636;2023-03-14T15:25:23;10.40;99.90
21031;DHT22;61072;47.808;7.636;2023-03-14T15:28:17;10.30;99.90
21031;DHT22;61072;47.808;7.636;2023-03-14T15:30:44;10.40;99.90
21031;DHT22;61072;47.808;7.636;2023-03-14T15:33:11;10.40;99.90
21031;DHT22;61072;47.808;7.636;2023-03-14T15:35:38;10.40;99.90
21031;DHT22;61072;47.808;7.636;2023-03-14T15:38:05;10.40;99.90
21031;DHT22;61072;47.808;7.636;2023-03-14T15:40:31;10.40;99.90
21031;DHT22;61072;47.808;7.636;2023-03-14T15:42:58;10.40;99.90
21031;DHT22;61072;47.808;7.636;2023-03-14T15:45:25;10.40;99.90
21031;DHT22;61072;47.808;7.636;2023-03-14T15:47:51;10.40;99.90
21031;DHT22;61072;47.808;7.636;2023-03-14T15:50:18;10.40;99.90
21031;DHT22;61072;47.808;7.636;2023-03-14T15:52:45;10.40;99.90
21031;DHT22;61072;47.808;7.636;2023-03-14T15:55:12;10.40;99.90
21031;DHT22;61072;47.808;7.636;2023-03-14T15:57:43;10.40;99.90
21031;DHT22;61072;47.808;7.636;2023-03-14T16:00:14;10.40;99.90
21031;DHT22;61072;47.808;7.636;2023-03-14T16:02:41;10.40;99.90
21031;DHT22;61072;47.808;7.636;2023-03-14T16:05:09;10.40;99.90
21031;DHT22;61072;47.808;7.636;2023-03-14T16:07:36;10.40;99.90
21031;DHT22;61072;47.808;7.636;2023-03-14T16:10:04;10.40;99.90
21031;DHT22;61072;47.808;7.636;2023-03-14T16:12:32;10.30;99.90
21031;DHT22;61072;47.808;7.636;2023-03-14T16:15:00;10.00;99.90
21031;DHT22;61072;47.808;7.636;2023-03-14T16:17:27;9.70;99.90
21031;DHT22;61072;47.808;7.636;2023-03-14T16:19:53;9.70;99.90
21031;DHT22;61072;47.808;7.636;2023-03-14T16:22:20;9.60;99.90
21031;DHT22;61072;47.808;7.636;2023-03-14T16:24:47;9.60;99.90
21031;DHT22;61072;47.808;7.636;2023-03-14T16:27:14;9.70;99.90
21031;DHT22;61072;47.808;7.636;2023-03-14T16:29:41;9.70;99.90
21031;DHT22;61072;47.808;7.636;2023-03-14T16:32:09;9.80;99.90
21031;DHT22;61072;47.808;7.636;2023-03-14T16:34:38;9.80;99.90
21031;DHT22;61072;47.808;7.636;2023-03-14T16:37:08;9.90;99.90
21031;DHT22;61072;47.808;7.636;2023-03-14T16:39:35;9.80;99.90
21031;DHT22;61072;47.808;7.636;2023-03-14T16:42:22;9.90;99.90
21031;DHT22;61072;47.808;7.636;2023-03-14T16:44:49;9.90;99.90
21031;DHT22;61072;47.808;7.636;2023-03-14T16:47:15;9.90;99.90
21031;DHT22;61072;47.808;7.636;2023-03-14T16:49:42;9.90;99.90
21031;DHT22;61072;47.808;7.636;2023-03-14T16:52:09;9.90;99.90
21031;DHT22;61072;47.808;7.636;2023-03-14T16:54:35;10.00;99.90
21031;DHT22;61072;47.808;7.636;2023-03-14T16:57:02;9.90;99.90
21031;DHT22;61072;47.808;7.636;2023-03-14T16:59:29;9.90;99.90